Time;durP1;ratioP1;P1;durP2;ratioP2;P2;SDS_P1;SDS_P2;PMS_P1;PMS_P2;Temp;Humidity;BMP_temperature;BMP_pressure;BME280_temperature;BME280_humidity;BME280_pressure;Samples;Min_cycle;Max_cycle;Signal;HPM_P1;HPM_P2
2022/10/06 00:04:26;;;;;;;1.55;0.60;;;;;;;;;;10254647;28;20043;-85
2022/10/06 00:09:30;;;;;;;1.67;0.60;;;;;;;;;;10233753;28;20052;-87
2022/10/06 00:14:34;;;;;;;2.17;0.65;;;;;;;;;;10231813;28;20047;-87
2022/10/06 00:19:39;;;;;;;0.93;0.63;;;;;;;;;;10255969;28;20051;-86
2022/10/06 00:24:42;;;;;;;3.75;0.98;;;;;;;;;;10224481;28;20063;-87
2022/10/06 00:29:46;;;;;;;2.10;0.88;;;;;;;;;;10245705;28;20051;-88
2022/10/06 00:34:51;;;;;;;2.58;1.30;;;;;;;;;;10240769;28;20059;-87
2022/10/06 00:39:55;;;;;;;3.40;1.47;;;;;;;;;;10243871;28;20049;-87
2022/10/06 00:45:02;;;;;;;5.75;1.67;;;;;;;;;;10232658;29;20054;-88
2022/10/06 00:50:08;;;;;;;6.00;2.63;;;;;;;;;;10257448;28;20171;-84
2022/10/06 00:55:11;;;;;;;2.85;1.30;;;;;;;;;;10238260;28;20138;-87
2022/10/06 01:00:15;;;;;;;4.68;1.30;;;;;;;;;;10244061;28;20047;-85
2022/10/06 01:05:26;;;;;;;1.17;0.80;;;;;;;;;;10245476;28;20095;-83
2022/10/06 01:10:30;;;;;;;0.70;0.57;;;;;;;;;;10236827;28;20051;-87
2022/10/06 01:15:34;;;;;;;1.42;0.50;;;;;;;;;;10253161;28;20071;-87
2022/10/06 01:20:42;;;;;;;2.92;0.13;;;;;;;;;;10244569;28;20054;-88
2022/10/06 01:25:47;;;;;;;0.45;0.20;;;;;;;;;;10245926;28;20062;-86
2022/10/06 01:30:53;;;;;;;0.70;0.30;;;;;;;;;;10244367;28;20098;-86
2022/10/06 01:35:59;;;;;;;0.35;0.30;;;;;;;;;;10237312;29;20039;-85
2022/10/06 01:41:05;;;;;;;1.33;0.40;;;;;;;;;;10247650;28;20109;-87
2022/10/06 01:46:11;;;;;;;0.20;0.10;;;;;;;;;;10245574;29;20046;-86
2022/10/06 01:51:17;;;;;;;2.65;0.35;;;;;;;;;;10253647;28;20040;-87
2022/10/06 01:56:22;;;;;;;0.30;0.20;;;;;;;;;;10229392;29;20051;-87
2022/10/06 02:01:26;;;;;;;0.70;0.10;;;;;;;;;;10253527;28;20047;-86
2022/10/06 02:06:29;;;;;;;0.10;0.10;;;;;;;;;;10252823;28;20042;-87
2022/10/06 02:11:35;;;;;;;1.08;0.30;;;;;;;;;;10260274;28;20039;-86
2022/10/06 02:16:40;;;;;;;1.00;0.43;;;;;;;;;;10236324;29;20098;-87
2022/10/06 02:21:43;;;;;;;1.05;0.30;;;;;;;;;;10236505;29;20051;-85
2022/10/06 02:26:51;;;;;;;1.48;0.50;;;;;;;;;;10227135;28;20051;-87
2022/10/06 02:31:55;;;;;;;0.57;0.40;;;;;;;;;;10235852;28;20138;-86
2022/10/06 02:36:59;;;;;;;1.40;0.30;;;;;;;;;;10221793;28;20646;-85
2022/10/06 02:42:06;;;;;;;0.80;0.32;;;;;;;;;;10242966;28;20043;-85
2022/10/06 02:47:13;;;;;;;0.90;0.30;;;;;;;;;;10224031;29;20121;-84
2022/10/06 02:52:17;;;;;;;1.33;0.22;;;;;;;;;;10251508;28;20039;-86
2022/10/06 02:57:22;;;;;;;1.35;0.35;;;;;;;;;;10251274;28;20091;-85
2022/10/06 03:02:25;;;;;;;0.93;0.40;;;;;;;;;;10235310;28;20044;-87
2022/10/06 03:07:29;;;;;;;1.73;0.52;;;;;;;;;;10227586;28;20509;-84
2022/10/06 03:12:34;;;;;;;0.63;0.30;;;;;;;;;;10242926;28;20134;-87
2022/10/06 03:17:38;;;;;;;2.90;0.60;;;;;;;;;;10219524;28;20051;-85
2022/10/06 03:22:41;;;;;;;0.80;0.30;;;;;;;;;;10241876;28;20059;-86
2022/10/06 03:27:47;;;;;;;1.27;0.57;;;;;;;;;;10229610;28;20510;-87
2022/10/06 03:32:52;;;;;;;1.33;0.47;;;;;;;;;;10236514;28;20145;-86
2022/10/06 03:37:58;;;;;;;2.67;0.30;;;;;;;;;;10258675;28;20053;-87
2022/10/06 03:43:03;;;;;;;0.70;0.22;;;;;;;;;;10251338;28;20134;-85
2022/10/06 03:48:07;;;;;;;0.85;0.30;;;;;;;;;;10246690;28;20050;-86
2022/10/06 03:53:10;;;;;;;1.10;0.40;;;;;;;;;;10266653;28;20552;-87
2022/10/06 03:58:18;;;;;;;2.88;0.65;;;;;;;;;;10266600;28;20039;-87
2022/10/06 04:03:22;;;;;;;2.35;0.80;;;;;;;;;;10256857;28;20585;-85
2022/10/06 04:08:26;;;;;;;3.83;1.42;;;;;;;;;;10249744;28;20048;-87
2022/10/06 04:13:32;;;;;;;5.05;1.17;;;;;;;;;;10265699;28;20046;-85
2022/10/06 04:18:35;;;;;;;2.73;0.60;;;;;;;;;;10256735;28;20134;-86
2022/10/06 04:23:40;;;;;;;4.15;0.55;;;;;;;;;;10263928;28;20079;-85
2022/10/06 04:28:46;;;;;;;3.53;0.70;;;;;;;;;;10240946;28;20098;-86
2022/10/06 04:33:52;;;;;;;3.88;0.80;;;;;;;;;;10249655;28;20618;-87
2022/10/06 04:38:59;;;;;;;2.75;0.70;;;;;;;;;;10240224;28;20123;-87
2022/10/06 04:44:05;;;;;;;3.30;0.77;;;;;;;;;;10244158;28;20042;-86
2022/10/06 04:49:09;;;;;;;1.45;0.60;;;;;;;;;;10239397;28;20581;-85
2022/10/06 04:54:16;;;;;;;2.15;0.30;;;;;;;;;;10261066;28;20043;-86
2022/10/06 05:00:21;;;;;;;2.00;0.90;;;;;;;;;;10249080;28;20043;-87
2022/10/06 05:04:47;;;;;;;1.25;0.50;;;;;;;;;;10258708;28;20039;-87
2022/10/06 05:09:52;;;;;;;1.13;0.40;;;;;;;;;;10259810;28;20043;-87
2022/10/06 05:14:57;;;;;;;1.95;0.50;;;;;;;;;;10256758;28;20043;-87
2022/10/06 05:20:01;;;;;;;2.50;0.60;;;;;;;;;;10259577;28;20049;-87
2022/10/06 05:25:06;;;;;;;1.30;0.40;;;;;;;;;;10241794;28;20059;-86
2022/10/06 05:30:12;;;;;;;2.42;0.90;;;;;;;;;;10258183;28;20094;-87
2022/10/06 05:35:16;;;;;;;3.20;0.52;;;;;;;;;;10227928;29;20571;-85
2022/10/06 05:40:19;;;;;;;1.52;0.40;;;;;;;;;;10232645;29;20410;-87
2022/10/06 05:45:24;;;;;;;2.55;0.68;;;;;;;;;;10246826;28;20546;-86
2022/10/06 05:50:28;;;;;;;0.93;0.40;;;;;;;;;;10242358;28;20590;-86
2022/10/06 05:55:32;;;;;;;1.75;0.55;;;;;;;;;;10244886;29;20070;-87
2022/10/06 06:00:37;;;;;;;4.07;0.50;;;;;;;;;;10262175;28;20047;-86
2022/10/06 06:05:41;;;;;;;2.20;0.70;;;;;;;;;;10211770;29;20040;-88
2022/10/06 06:10:45;;;;;;;1.35;0.80;;;;;;;;;;10212056;29;20617;-88
2022/10/06 06:16:03;;;;;;;1.60;1.13;;;;;;;;;;10227711;28;20056;-88
2022/10/06 06:21:09;;;;;;;3.53;1.10;;;;;;;;;;10227652;28;20130;-87
2022/10/06 06:26:16;;;;;;;2.90;0.73;;;;;;;;;;10211413;29;20054;-88
2022/10/06 06:31:28;;;;;;;2.50;1.13;;;;;;;;;;10211363;29;20743;-87
2022/10/06 06:36:34;;;;;;;2.40;0.82;;;;;;;;;;10211233;29;20054;-88
2022/10/06 06:41:41;;;;;;;3.75;0.90;;;;;;;;;;10211458;29;20059;-87
2022/10/06 06:47:20;;;;;;;2.90;0.95;;;;;;;;;;10201075;29;20421;-88
2022/10/06 06:52:24;;;;;;;3.35;1.33;;;;;;;;;;10226848;29;20047;-88
2022/10/06 06:57:31;;;;;;;2.35;1.08;;;;;;;;;;10227454;28;20051;-89
2022/10/06 07:02:37;;;;;;;2.97;1.15;;;;;;;;;;10210820;29;20048;-88
2022/10/06 07:07:40;;;;;;;5.20;1.08;;;;;;;;;;10227333;29;20138;-90
2022/10/06 07:12:45;;;;;;;7.72;1.83;;;;;;;;;;10226889;29;20058;-88
2022/10/06 07:28:41;;;;;;;4.80;1.20;;;;;;;;;;10218918;29;20044;-89
2022/10/06 07:33:48;;;;;;;3.00;0.70;;;;;;;;;;10218275;29;20051;-88
2022/10/06 07:38:52;;;;;;;3.30;0.93;;;;;;;;;;10232983;29;20094;-88
2022/10/06 07:43:55;;;;;;;8.48;1.42;;;;;;;;;;10233941;29;20467;-88
2022/10/06 07:49:03;;;;;;;8.50;2.28;;;;;;;;;;10234047;29;20051;-88
2022/10/06 07:54:07;;;;;;;4.77;1.07;;;;;;;;;;10218195;29;20048;-88
2022/10/06 07:59:21;;;;;;;5.65;0.95;;;;;;;;;;10233461;29;20067;-88
2022/10/06 08:04:26;;;;;;;5.53;1.50;;;;;;;;;;10217481;29;20107;-88
2022/10/06 08:09:30;;;;;;;4.93;1.33;;;;;;;;;;10217042;29;20048;-88
2022/10/06 08:14:34;;;;;;;3.67;1.02;;;;;;;;;;10216914;29;20047;-88
2022/10/06 08:19:41;;;;;;;2.70;0.65;;;;;;;;;;10216455;29;20047;-89
2022/10/06 08:24:44;;;;;;;6.13;1.58;;;;;;;;;;10217244;29;20103;-90
2022/10/06 08:30:06;;;;;;;6.85;1.13;;;;;;;;;;10231429;29;20047;-90
2022/10/06 08:35:13;;;;;;;5.35;1.20;;;;;;;;;;10231343;28;20091;-88
2022/10/06 08:40:17;;;;;;;5.57;1.40;;;;;;;;;;10230978;28;20644;-88
2022/10/06 08:45:23;;;;;;;4.55;1.30;;;;;;;;;;10230830;29;20511;-88
2022/10/06 08:50:32;;;;;;;6.80;1.70;;;;;;;;;;10230661;29;20138;-88
2022/10/06 08:55:42;;;;;;;5.20;1.05;;;;;;;;;;10231365;28;20054;-89
2022/10/06 09:00:45;;;;;;;6.80;1.33;;;;;;;;;;10216073;29;20102;-88
2022/10/06 09:05:52;;;;;;;4.13;0.90;;;;;;;;;;10216317;29;20051;-88
2022/10/06 09:11:00;;;;;;;;;;;;;;;;;;10215173;29;20150;-88
2022/10/06 09:16:07;;;;;;;5.05;1.05;;;;;;;;;;10216010;29;20301;-88
2022/10/06 09:21:16;;;;;;;7.82;2.10;;;;;;;;;;10214041;29;20208;-88
2022/10/06 09:26:21;;;;;;;7.68;1.70;;;;;;;;;;10230318;29;20059;-88
2022/10/06 09:31:28;;;;;;;6.93;2.20;;;;;;;;;;10214538;29;20102;-88
2022/10/06 09:36:49;;;;;;;4.72;1.05;;;;;;;;;;10229719;28;20083;-88
2022/10/06 09:41:55;;;;;;;6.38;1.40;;;;;;;;;;10213340;29;20078;-88
2022/10/06 09:46:58;;;;;;;4.07;1.07;;;;;;;;;;10212983;29;20047;-88
2022/10/06 09:52:10;;;;;;;6.50;1.67;;;;;;;;;;10228844;29;20806;-88
2022/10/06 09:57:16;;;;;;;8.95;1.25;;;;;;;;;;10213706;29;20529;-88
2022/10/06 10:02:35;;;;;;;6.68;1.55;;;;;;;;;;10228720;29;20058;-88
2022/10/06 10:07:41;;;;;;;8.23;1.60;;;;;;;;;;10212686;29;20458;-88
2022/10/06 10:12:50;;;;;;;5.00;1.20;;;;;;;;;;10228749;29;20110;-88
2022/10/06 10:17:58;;;;;;;5.20;1.30;;;;;;;;;;10213276;29;20055;-88
2022/10/06 10:23:17;;;;;;;8.15;1.70;;;;;;;;;;10228234;29;20546;-88
2022/10/06 10:28:49;;;;;;;6.68;1.17;;;;;;;;;;10228663;29;20052;-87
2022/10/06 10:34:01;;;;;;;4.28;1.50;;;;;;;;;;10210096;29;20083;-88
2022/10/06 10:39:17;;;;;;;2.95;0.75;;;;;;;;;;10210377;29;20067;-88
2022/10/06 10:44:27;;;;;;;6.90;1.58;;;;;;;;;;10224560;29;20051;-90
2022/10/06 10:49:32;;;;;;;3.10;0.85;;;;;;;;;;10224827;29;20048;-88
2022/10/06 10:54:44;;;;;;;6.97;0.95;;;;;;;;;;10210282;29;20051;-88
2022/10/06 10:59:58;;;;;;;2.13;0.73;;;;;;;;;;10211653;29;20047;-88
2022/10/06 11:05:05;;;;;;;1.83;0.50;;;;;;;;;;10226929;28;20051;-87
2022/10/06 11:10:16;;;;;;;2.53;0.50;;;;;;;;;;10210938;29;20098;-88
2022/10/06 11:15:40;;;;;;;1.45;0.50;;;;;;;;;;10226592;28;20043;-88
2022/10/06 11:21:00;;;;;;;1.75;0.55;;;;;;;;;;10226499;28;20052;-88
2022/10/06 11:26:23;;;;;;;3.00;0.70;;;;;;;;;;10226553;29;20139;-88
2022/10/06 11:31:34;;;;;;;1.95;0.30;;;;;;;;;;10211602;29;20058;-89
2022/10/06 11:36:44;;;;;;;5.07;0.80;;;;;;;;;;10209540;29;20063;-88
2022/10/06 11:41:54;;;;;;;1.73;0.60;;;;;;;;;;10226839;29;20079;-88
2022/10/06 11:47:03;;;;;;;4.28;1.00;;;;;;;;;;10211806;29;20048;-90
2022/10/06 11:52:55;;;;;;;1.70;0.60;;;;;;;;;;10211896;29;20123;-90
2022/10/06 11:58:16;;;;;;;3.70;0.80;;;;;;;;;;10226239;29;20391;-89
2022/10/06 12:04:02;;;;;;;6.72;1.17;;;;;;;;;;10220581;28;20051;-88
2022/10/06 12:09:27;;;;;;;3.55;0.90;;;;;;;;;;10254090;28;20138;-88
2022/10/06 12:14:40;;;;;;;3.90;0.68;;;;;;;;;;10229223;28;20044;-88
2022/10/06 12:20:16;;;;;;;1.83;0.50;;;;;;;;;;10252340;28;20078;-89
2022/10/06 12:25:25;;;;;;;1.42;0.50;;;;;;;;;;10218885;29;20109;-88
2022/10/06 12:30:40;;;;;;;1.63;0.40;;;;;;;;;;10226958;28;20047;-88
2022/10/06 12:35:44;;;;;;;2.80;0.50;;;;;;;;;;10219792;28;20786;-88
2022/10/06 12:40:51;;;;;;;5.90;1.00;;;;;;;;;;10228491;28;20103;-87
2022/10/06 12:45:59;;;;;;;3.97;1.05;;;;;;;;;;10254377;28;20071;-88
2022/10/06 12:51:17;;;;;;;2.28;0.70;;;;;;;;;;10258556;28;20039;-87
2022/10/06 12:56:27;;;;;;;1.15;0.20;;;;;;;;;;10228462;28;20067;-88
2022/10/06 13:01:33;;;;;;;4.32;0.50;;;;;;;;;;10258525;28;20051;-87
2022/10/06 13:06:36;;;;;;;4.80;1.10;;;;;;;;;;10241786;28;20043;-88
2022/10/06 13:11:40;;;;;;;2.75;0.70;;;;;;;;;;10243057;28;20074;-88
2022/10/06 13:16:46;;;;;;;1.67;0.60;;;;;;;;;;10235829;28;20040;-88
2022/10/06 13:21:50;;;;;;;3.90;0.90;;;;;;;;;;10229011;28;20131;-88
2022/10/06 13:26:53;;;;;;;3.95;0.90;;;;;;;;;;10226768;28;20573;-88
2022/10/06 13:32:00;;;;;;;3.33;0.52;;;;;;;;;;10246856;28;20047;-87
2022/10/06 13:37:05;;;;;;;2.35;0.60;;;;;;;;;;10235701;28;20609;-88
2022/10/06 13:42:11;;;;;;;1.77;0.60;;;;;;;;;;10256836;28;20047;-88
2022/10/06 13:47:18;;;;;;;1.73;0.82;;;;;;;;;;10233458;28;20146;-88
2022/10/06 13:52:26;;;;;;;2.28;0.70;;;;;;;;;;10228632;28;20528;-86
2022/10/06 13:57:36;;;;;;;1.75;0.40;;;;;;;;;;10256085;28;20118;-88
2022/10/06 14:02:46;;;;;;;2.33;0.30;;;;;;;;;;10248279;28;20043;-87
2022/10/06 14:07:51;;;;;;;1.90;0.55;;;;;;;;;;10269138;28;20051;-88
2022/10/06 14:12:54;;;;;;;2.35;0.50;;;;;;;;;;10247765;28;20143;-89
2022/10/06 14:18:02;;;;;;;3.33;0.63;;;;;;;;;;10244891;28;20098;-88
2022/10/06 14:23:33;;;;;;;2.25;0.40;;;;;;;;;;10243662;28;20043;-88
2022/10/06 14:28:37;;;;;;;1.40;0.20;;;;;;;;;;10231217;28;20143;-88
2022/10/06 14:33:42;;;;;;;2.35;0.75;;;;;;;;;;10243517;28;20054;-88
2022/10/06 14:38:47;;;;;;;2.00;0.60;;;;;;;;;;10241534;28;20141;-87
2022/10/06 14:43:53;;;;;;;3.50;0.52;;;;;;;;;;10263996;28;20138;-88
2022/10/06 14:48:59;;;;;;;;;;;;;;;;;;10246745;28;20446;-88
2022/10/06 14:54:03;;;;;;;2.80;1.20;;;;;;;;;;10217503;28;20392;-87
2022/10/06 14:59:09;;;;;;;2.53;0.63;;;;;;;;;;10235039;28;20082;-88
2022/10/06 15:04:15;;;;;;;0.93;0.55;;;;;;;;;;10221143;28;20075;-88
2022/10/06 15:09:19;;;;;;;1.17;0.52;;;;;;;;;;10239730;28;20122;-88
2022/10/06 15:14:22;;;;;;;4.53;1.15;;;;;;;;;;10221914;28;20044;-88
2022/10/06 15:19:27;;;;;;;2.58;0.40;;;;;;;;;;10239653;28;20043;-88
2022/10/06 15:24:31;;;;;;;2.72;0.80;;;;;;;;;;10237532;28;20071;-88
2022/10/06 15:29:35;;;;;;;1.42;0.50;;;;;;;;;;10230132;28;20051;-87
2022/10/06 15:34:39;;;;;;;3.60;0.80;;;;;;;;;;10235532;28;20051;-88
2022/10/06 15:39:45;;;;;;;3.33;0.80;;;;;;;;;;10212585;29;20090;-88
2022/10/06 15:44:48;;;;;;;2.88;0.52;;;;;;;;;;10230633;28;20067;-88
2022/10/06 15:49:53;;;;;;;3.38;0.77;;;;;;;;;;10249741;28;20404;-90
2022/10/06 15:54:57;;;;;;;4.55;0.70;;;;;;;;;;10243492;28;20136;-88
2022/10/06 16:00:00;;;;;;;4.22;0.90;;;;;;;;;;10261434;28;20037;-89
2022/10/06 16:05:46;;;;;;;1.65;0.35;;;;;;;;;;10265141;28;20437;-88
2022/10/06 16:10:50;;;;;;;3.25;0.68;;;;;;;;;;10267285;28;20031;-88
2022/10/06 16:15:57;;;;;;;2.05;0.45;;;;;;;;;;10213260;29;20040;-89
2022/10/06 16:21:02;;;;;;;3.53;0.50;;;;;;;;;;10187799;29;20569;-89
2022/10/06 16:26:05;;;;;;;1.50;0.50;;;;;;;;;;10203335;29;20047;-88
2022/10/06 16:31:09;;;;;;;0.90;0.30;;;;;;;;;;10197626;29;20060;-89
2022/10/06 16:36:15;;;;;;;2.63;0.50;;;;;;;;;;10207074;29;20052;-89
2022/10/06 16:41:22;;;;;;;1.10;0.40;;;;;;;;;;10216728;28;20062;-89
2022/10/06 16:46:27;;;;;;;1.83;0.80;;;;;;;;;;10219719;29;20573;-88
2022/10/06 16:51:34;;;;;;;1.17;0.60;;;;;;;;;;10204250;29;20570;-89
2022/10/06 16:56:41;;;;;;;2.50;0.95;;;;;;;;;;10201601;29;20384;-88
2022/10/06 17:01:46;;;;;;;2.92;0.65;;;;;;;;;;10189840;29;20143;-88
2022/10/06 17:06:56;;;;;;;3.47;0.80;;;;;;;;;;10186235;29;20099;-88
2022/10/06 17:12:03;;;;;;;1.30;0.70;;;;;;;;;;10178406;29;20142;-88
2022/10/06 17:17:07;;;;;;;1.88;0.63;;;;;;;;;;10187514;29;20590;-88
2022/10/06 17:22:12;;;;;;;2.58;0.88;;;;;;;;;;10185775;29;20133;-88
2022/10/06 17:27:16;;;;;;;2.73;0.83;;;;;;;;;;10202842;29;20134;-87
2022/10/06 17:32:19;;;;;;;4.50;1.40;;;;;;;;;;10209378;29;20043;-88
2022/10/06 17:37:28;;;;;;;2.92;1.63;;;;;;;;;;10199930;29;20043;-87
2022/10/06 17:42:32;;;;;;;4.18;2.00;;;;;;;;;;10215259;29;20226;-88
2022/10/06 17:47:35;;;;;;;5.10;2.40;;;;;;;;;;10218887;28;20055;-88
2022/10/06 17:52:40;;;;;;;4.05;2.13;;;;;;;;;;10194024;29;20046;-88
2022/10/06 17:57:44;;;;;;;6.20;2.40;;;;;;;;;;10195562;29;20119;-88
2022/10/06 18:02:47;;;;;;;3.40;2.25;;;;;;;;;;10220248;28;20157;-85
2022/10/06 18:07:54;;;;;;;4.75;2.25;;;;;;;;;;10195645;29;20369;-85
2022/10/06 18:12:58;;;;;;;5.57;2.67;;;;;;;;;;10216341;28;20096;-86
2022/10/06 18:18:01;;;;;;;4.97;2.50;;;;;;;;;;10195331;29;20058;-85
2022/10/06 18:23:08;;;;;;;6.80;3.03;;;;;;;;;;10213823;29;20067;-85
2022/10/06 18:28:11;;;;;;;5.55;2.70;;;;;;;;;;10197492;29;20054;-85
2022/10/06 18:33:15;;;;;;;6.47;2.78;;;;;;;;;;10189321;29;20048;-85
2022/10/06 18:38:41;;;;;;;3.88;1.48;;;;;;;;;;10188419;29;20041;-85
2022/10/06 18:43:45;;;;;;;;;;;;;;;;;;10205644;29;20104;-85
2022/10/06 18:48:55;;;;;;;3.53;1.60;;;;;;;;;;10208764;29;19927;-85
2022/10/06 18:54:02;;;;;;;3.70;1.88;;;;;;;;;;10203423;29;20459;-85
2022/10/06 18:59:09;;;;;;;3.45;1.67;;;;;;;;;;10175271;29;20036;-85
2022/10/06 19:04:14;;;;;;;5.10;1.70;;;;;;;;;;10188857;29;20044;-85
2022/10/06 19:09:22;;;;;;;2.93;1.30;;;;;;;;;;10190077;29;20522;-85
2022/10/06 19:14:28;;;;;;;2.30;1.40;;;;;;;;;;10190154;29;20059;-85
2022/10/06 19:19:32;;;;;;;2.60;1.10;;;;;;;;;;10203620;29;20043;-85
2022/10/06 19:24:42;;;;;;;2.35;1.02;;;;;;;;;;10205735;29;20071;-85
2022/10/06 19:29:49;;;;;;;1.55;1.10;;;;;;;;;;10212337;29;20040;-85
2022/10/06 19:34:53;;;;;;;4.20;1.65;;;;;;;;;;10211928;29;20134;-85
2022/10/06 19:40:01;;;;;;;4.85;1.10;;;;;;;;;;10223161;29;20040;-85
2022/10/06 19:45:07;;;;;;;2.67;1.13;;;;;;;;;;10219525;28;20071;-85
2022/10/06 19:50:10;;;;;;;4.85;1.08;;;;;;;;;;10225585;29;20035;-85
2022/10/06 19:55:20;;;;;;;3.80;1.10;;;;;;;;;;10209828;29;20114;-85
2022/10/06 20:00:24;;;;;;;2.88;1.42;;;;;;;;;;10214897;29;20039;-85
2022/10/06 20:05:28;;;;;;;3.97;1.50;;;;;;;;;;10211410;29;20570;-85
2022/10/06 20:10:35;;;;;;;2.15;1.30;;;;;;;;;;10195449;29;20046;-85
2022/10/06 20:15:41;;;;;;;3.95;1.80;;;;;;;;;;10181304;29;20075;-85
2022/10/06 20:20:56;;;;;;;3.72;1.42;;;;;;;;;;10203306;29;20082;-85
2022/10/06 20:26:12;;;;;;;6.15;2.00;;;;;;;;;;10190700;29;20048;-85
2022/10/06 20:31:18;;;;;;;3.13;1.60;;;;;;;;;;10194080;29;20044;-85
2022/10/06 20:36:23;;;;;;;2.77;1.70;;;;;;;;;;10210562;28;20044;-85
2022/10/06 20:41:29;;;;;;;3.20;1.70;;;;;;;;;;10215601;29;20041;-85
2022/10/06 20:46:35;;;;;;;5.73;1.83;;;;;;;;;;10203848;29;20044;-85
2022/10/06 20:51:40;;;;;;;3.38;1.77;;;;;;;;;;10189121;29;20302;-85
2022/10/06 20:56:47;;;;;;;4.88;1.60;;;;;;;;;;10183255;29;20134;-85
2022/10/06 21:01:51;;;;;;;3.20;1.50;;;;;;;;;;10190626;29;20044;-85
2022/10/06 21:06:55;;;;;;;2.50;1.48;;;;;;;;;;10213541;28;20146;-85
2022/10/06 21:12:01;;;;;;;4.85;1.90;;;;;;;;;;10191308;29;20036;-85
2022/10/06 21:17:07;;;;;;;3.83;1.83;;;;;;;;;;10191481;29;20040;-85
2022/10/06 21:22:11;;;;;;;3.15;1.58;;;;;;;;;;10212124;29;20040;-85
2022/10/06 21:27:17;;;;;;;2.90;1.50;;;;;;;;;;10189246;29;20156;-85
2022/10/06 21:32:20;;;;;;;4.75;2.17;;;;;;;;;;10204787;29;20054;-85
2022/10/06 21:37:24;;;;;;;6.25;2.00;;;;;;;;;;10165956;29;20063;-85
2022/10/06 21:42:30;;;;;;;5.53;1.98;;;;;;;;;;10189323;29;20052;-85
2022/10/06 21:47:34;;;;;;;3.08;1.42;;;;;;;;;;10196794;29;20087;-85
2022/10/06 21:52:38;;;;;;;2.72;1.52;;;;;;;;;;10185723;29;20414;-85
2022/10/06 21:57:43;;;;;;;4.05;1.40;;;;;;;;;;10172039;29;20052;-85
2022/10/06 22:02:46;;;;;;;3.38;1.50;;;;;;;;;;10210080;28;20150;-85
2022/10/06 22:07:50;;;;;;;4.35;1.83;;;;;;;;;;10181903;29;20142;-85
2022/10/06 22:12:55;;;;;;;3.50;1.70;;;;;;;;;;10209348;29;20060;-85
2022/10/06 22:17:58;;;;;;;3.10;1.58;;;;;;;;;;10182619;29;20051;-85
2022/10/06 22:23:02;;;;;;;3.13;1.60;;;;;;;;;;10203388;29;20052;-85
2022/10/06 22:28:08;;;;;;;4.20;1.50;;;;;;;;;;10186943;29;20139;-85
2022/10/06 22:33:12;;;;;;;4.03;1.75;;;;;;;;;;10179510;29;20044;-85
2022/10/06 22:38:16;;;;;;;9.13;1.90;;;;;;;;;;10180089;29;20044;-85
2022/10/06 22:43:20;;;;;;;2.95;1.73;;;;;;;;;;10186317;29;20412;-85
2022/10/06 22:48:25;;;;;;;6.33;1.53;;;;;;;;;;10184535;29;20462;-85
2022/10/06 22:53:30;;;;;;;2.78;1.33;;;;;;;;;;10193610;29;20138;-85
2022/10/06 22:58:35;;;;;;;2.22;1.35;;;;;;;;;;10195334;29;20130;-85
2022/10/06 23:03:39;;;;;;;4.88;2.35;;;;;;;;;;10186249;29;20054;-85
2022/10/06 23:08:43;;;;;;;10.77;2.35;;;;;;;;;;10195104;29;20054;-85
2022/10/06 23:13:49;;;;;;;4.95;1.70;;;;;;;;;;10209723;29;20150;-84
2022/10/06 23:18:53;;;;;;;3.50;1.70;;;;;;;;;;10186218;29;20114;-84
2022/10/06 23:24:02;;;;;;;3.10;1.67;;;;;;;;;;10203151;29;20048;-84
2022/10/06 23:29:09;;;;;;;3.13;1.63;;;;;;;;;;10195476;29;20044;-85
2022/10/06 23:34:13;;;;;;;3.35;1.30;;;;;;;;;;10208157;29;20043;-85
2022/10/06 23:39:19;;;;;;;4.27;1.23;;;;;;;;;;10203149;29;20395;-85
2022/10/06 23:44:24;;;;;;;2.58;1.35;;;;;;;;;;10189315;29;20040;-85
2022/10/06 23:49:28;;;;;;;3.03;1.23;;;;;;;;;;10192811;29;20074;-85
2022/10/06 23:54:32;;;;;;;2.45;1.40;;;;;;;;;;10209874;29;20036;-85
2022/10/06 23:59:37;;;;;;;2.70;1.15;;;;;;;;;;10201142;28;20457;-84
